sensor_id;sensor_type;location;lat;lon;timestamp;P1;durP1;ratioP1;P2;durP2;ratioP2
68718;SDS011;55696;52.138;5.444;2022-10-16T00:01:26;6.78;;;2.25;;
68718;SDS011;55696;52.138;5.444;2022-10-16T00:03:55;7.00;;;2.30;;
68718;SDS011;55696;52.138;5.444;2022-10-16T00:06:24;8.13;;;2.47;;
68718;SDS011;55696;52.138;5.444;2022-10-16T00:08:52;5.18;;;2.08;;
68718;SDS011;55696;52.138;5.444;2022-10-16T00:11:26;9.10;;;2.10;;
68718;SDS011;55696;52.138;5.444;2022-10-16T00:13:56;4.05;;;1.65;;
68718;SDS011;55696;52.138;5.444;2022-10-16T00:16:24;4.32;;;2.38;;
68718;SDS011;55696;52.138;5.444;2022-10-16T00:18:52;6.45;;;1.80;;
68718;SDS011;55696;52.138;5.444;2022-10-16T00:21:20;7.53;;;2.25;;
68718;SDS011;55696;52.138;5.444;2022-10-16T00:23:53;7.17;;;2.23;;
68718;SDS011;55696;52.138;5.444;2022-10-16T00:26:21;8.95;;;2.47;;
68718;SDS011;55696;52.138;5.444;2022-10-16T00:28:49;7.53;;;1.80;;
68718;SDS011;55696;52.138;5.444;2022-10-16T00:31:17;5.05;;;1.85;;
68718;SDS011;55696;52.138;5.444;2022-10-16T00:33:45;4.97;;;2.08;;
68718;SDS011;55696;52.138;5.444;2022-10-16T00:36:14;5.57;;;2.30;;
68718;SDS011;55696;52.138;5.444;2022-10-16T00:38:43;4.68;;;1.90;;
68718;SDS011;55696;52.138;5.444;2022-10-16T00:41:11;5.82;;;2.30;;
68718;SDS011;55696;52.138;5.444;2022-10-16T00:43:48;5.18;;;2.38;;
68718;SDS011;55696;52.138;5.444;2022-10-16T00:51:33;4.65;;;2.15;;
68718;SDS011;55696;52.138;5.444;2022-10-16T00:54:09;6.03;;;2.80;;
68718;SDS011;55696;52.138;5.444;2022-10-16T00:56:43;5.72;;;2.05;;
68718;SDS011;55696;52.138;5.444;2022-10-16T00:59:15;6.97;;;2.30;;
68718;SDS011;55696;52.138;5.444;2022-10-16T01:01:45;7.00;;;2.50;;
68718;SDS011;55696;52.138;5.444;2022-10-16T01:04:12;7.03;;;2.65;;
68718;SDS011;55696;52.138;5.444;2022-10-16T01:06:42;6.72;;;2.20;;
68718;SDS011;55696;52.138;5.444;2022-10-16T01:09:23;7.03;;;2.38;;
68718;SDS011;55696;52.138;5.444;2022-10-16T01:12:15;5.45;;;2.40;;
68718;SDS011;55696;52.138;5.444;2022-10-16T01:20:59;9.55;;;2.90;;
68718;SDS011;55696;52.138;5.444;2022-10-16T01:26:41;5.38;;;3.08;;
68718;SDS011;55696;52.138;5.444;2022-10-16T01:29:21;8.03;;;2.80;;
68718;SDS011;55696;52.138;5.444;2022-10-16T01:32:10;7.10;;;2.92;;
68718;SDS011;55696;52.138;5.444;2022-10-16T01:34:50;5.97;;;2.85;;
68718;SDS011;55696;52.138;5.444;2022-10-16T01:37:35;8.38;;;3.20;;
68718;SDS011;55696;52.138;5.444;2022-10-16T01:40:07;7.05;;;2.60;;
68718;SDS011;55696;52.138;5.444;2022-10-16T01:42:38;6.50;;;2.10;;
68718;SDS011;55696;52.138;5.444;2022-10-16T01:45:09;7.40;;;2.58;;
68718;SDS011;55696;52.138;5.444;2022-10-16T01:47:39;7.28;;;2.55;;
68718;SDS011;55696;52.138;5.444;2022-10-16T01:50:07;6.82;;;2.25;;
68718;SDS011;55696;52.138;5.444;2022-10-16T01:52:35;6.00;;;2.70;;
68718;SDS011;55696;52.138;5.444;2022-10-16T01:55:05;7.43;;;2.60;;
68718;SDS011;55696;52.138;5.444;2022-10-16T01:57:36;5.43;;;2.70;;
68718;SDS011;55696;52.138;5.444;2022-10-16T02:00:07;5.65;;;2.28;;
68718;SDS011;55696;52.138;5.444;2022-10-16T02:02:43;7.25;;;2.63;;
68718;SDS011;55696;52.138;5.444;2022-10-16T02:05:16;7.97;;;2.53;;
68718;SDS011;55696;52.138;5.444;2022-10-16T02:07:48;4.63;;;2.30;;
68718;SDS011;55696;52.138;5.444;2022-10-16T02:10:15;6.20;;;2.30;;
68718;SDS011;55696;52.138;5.444;2022-10-16T02:12:47;6.47;;;2.60;;
68718;SDS011;55696;52.138;5.444;2022-10-16T02:15:20;5.90;;;2.55;;
68718;SDS011;55696;52.138;5.444;2022-10-16T02:17:47;6.38;;;2.25;;
68718;SDS011;55696;52.138;5.444;2022-10-16T02:20:13;4.73;;;2.30;;
68718;SDS011;55696;52.138;5.444;2022-10-16T02:22:42;5.93;;;2.60;;
68718;SDS011;55696;52.138;5.444;2022-10-16T02:25:26;3.90;;;2.10;;
68718;SDS011;55696;52.138;5.444;2022-10-16T02:28:00;5.35;;;2.35;;
68718;SDS011;55696;52.138;5.444;2022-10-16T02:30:42;7.95;;;2.90;;
68718;SDS011;55696;52.138;5.444;2022-10-16T02:33:20;4.63;;;2.40;;
68718;SDS011;55696;52.138;5.444;2022-10-16T02:35:48;8.40;;;2.80;;
68718;SDS011;55696;52.138;5.444;2022-10-16T02:38:17;4.60;;;2.50;;
68718;SDS011;55696;52.138;5.444;2022-10-16T02:40:45;7.32;;;3.08;;
68718;SDS011;55696;52.138;5.444;2022-10-16T02:43:12;6.75;;;2.97;;
68718;SDS011;55696;52.138;5.444;2022-10-16T02:45:39;6.27;;;2.97;;
68718;SDS011;55696;52.138;5.444;2022-10-16T02:48:06;6.65;;;2.70;;
68718;SDS011;55696;52.138;5.444;2022-10-16T02:50:33;8.55;;;2.88;;
68718;SDS011;55696;52.138;5.444;2022-10-16T02:53:00;10.90;;;3.20;;
68718;SDS011;55696;52.138;5.444;2022-10-16T02:55:27;6.55;;;3.15;;
68718;SDS011;55696;52.138;5.444;2022-10-16T02:57:54;8.00;;;3.10;;
68718;SDS011;55696;52.138;5.444;2022-10-16T03:00:21;7.82;;;3.20;;
68718;SDS011;55696;52.138;5.444;2022-10-16T03:02:48;4.70;;;2.60;;
68718;SDS011;55696;52.138;5.444;2022-10-16T03:05:14;4.90;;;2.97;;
68718;SDS011;55696;52.138;5.444;2022-10-16T03:07:42;6.95;;;3.10;;
68718;SDS011;55696;52.138;5.444;2022-10-16T03:10:08;6.20;;;2.70;;
68718;SDS011;55696;52.138;5.444;2022-10-16T03:12:35;5.30;;;2.70;;
68718;SDS011;55696;52.138;5.444;2022-10-16T03:15:02;11.18;;;2.80;;
68718;SDS011;55696;52.138;5.444;2022-10-16T03:17:31;4.78;;;2.78;;
68718;SDS011;55696;52.138;5.444;2022-10-16T03:19:57;4.38;;;2.78;;
68718;SDS011;55696;52.138;5.444;2022-10-16T03:22:24;5.43;;;2.67;;
68718;SDS011;55696;52.138;5.444;2022-10-16T03:24:51;5.25;;;2.45;;
68718;SDS011;55696;52.138;5.444;2022-10-16T03:27:18;4.90;;;2.63;;
68718;SDS011;55696;52.138;5.444;2022-10-16T03:29:44;5.20;;;2.92;;
68718;SDS011;55696;52.138;5.444;2022-10-16T03:32:11;6.80;;;2.60;;
68718;SDS011;55696;52.138;5.444;2022-10-16T03:34:38;6.13;;;2.50;;
68718;SDS011;55696;52.138;5.444;2022-10-16T03:37:04;9.23;;;2.80;;
68718;SDS011;55696;52.138;5.444;2022-10-16T03:39:31;7.97;;;3.10;;
68718;SDS011;55696;52.138;5.444;2022-10-16T03:41:58;5.53;;;2.60;;
68718;SDS011;55696;52.138;5.444;2022-10-16T03:44:25;5.93;;;2.97;;
68718;SDS011;55696;52.138;5.444;2022-10-16T03:46:51;9.60;;;2.97;;
68718;SDS011;55696;52.138;5.444;2022-10-16T03:49:18;11.07;;;3.55;;
68718;SDS011;55696;52.138;5.444;2022-10-16T03:51:45;8.18;;;2.80;;
68718;SDS011;55696;52.138;5.444;2022-10-16T03:54:12;6.70;;;2.90;;
68718;SDS011;55696;52.138;5.444;2022-10-16T03:56:38;5.43;;;2.67;;
68718;SDS011;55696;52.138;5.444;2022-10-16T03:59:05;7.17;;;2.50;;
68718;SDS011;55696;52.138;5.444;2022-10-16T04:01:32;6.30;;;2.45;;
68718;SDS011;55696;52.138;5.444;2022-10-16T04:03:58;4.13;;;2.15;;
68718;SDS011;55696;52.138;5.444;2022-10-16T04:06:25;4.20;;;2.17;;
68718;SDS011;55696;52.138;5.444;2022-10-16T04:08:52;5.95;;;2.35;;
68718;SDS011;55696;52.138;5.444;2022-10-16T04:11:18;5.80;;;2.30;;
68718;SDS011;55696;52.138;5.444;2022-10-16T04:13:45;3.55;;;2.42;;
68718;SDS011;55696;52.138;5.444;2022-10-16T04:16:12;5.28;;;2.15;;
68718;SDS011;55696;52.138;5.444;2022-10-16T04:18:39;3.80;;;1.92;;
68718;SDS011;55696;52.138;5.444;2022-10-16T04:21:06;5.45;;;1.95;;
68718;SDS011;55696;52.138;5.444;2022-10-16T04:23:33;4.27;;;2.00;;
68718;SDS011;55696;52.138;5.444;2022-10-16T04:26:00;8.02;;;2.15;;
68718;SDS011;55696;52.138;5.444;2022-10-16T04:28:27;4.57;;;2.00;;
68718;SDS011;55696;52.138;5.444;2022-10-16T04:30:54;4.70;;;1.95;;
68718;SDS011;55696;52.138;5.444;2022-10-16T04:33:21;4.50;;;1.95;;
68718;SDS011;55696;52.138;5.444;2022-10-16T04:35:48;4.27;;;1.77;;
68718;SDS011;55696;52.138;5.444;2022-10-16T04:38:14;3.78;;;2.08;;
68718;SDS011;55696;52.138;5.444;2022-10-16T04:40:42;3.78;;;1.83;;
68718;SDS011;55696;52.138;5.444;2022-10-16T04:43:09;6.72;;;2.78;;
68718;SDS011;55696;52.138;5.444;2022-10-16T04:45:35;5.82;;;1.80;;
68718;SDS011;55696;52.138;5.444;2022-10-16T04:48:02;8.17;;;4.57;;
68718;SDS011;55696;52.138;5.444;2022-10-16T04:50:29;5.57;;;2.10;;
68718;SDS011;55696;52.138;5.444;2022-10-16T04:53:03;3.50;;;1.90;;
68718;SDS011;55696;52.138;5.444;2022-10-16T04:55:31;5.90;;;2.47;;
68718;SDS011;55696;52.138;5.444;2022-10-16T04:57:57;5.65;;;1.88;;
68718;SDS011;55696;52.138;5.444;2022-10-16T05:00:24;4.17;;;1.77;;
68718;SDS011;55696;52.138;5.444;2022-10-16T05:02:51;3.92;;;2.00;;
68718;SDS011;55696;52.138;5.444;2022-10-16T05:05:18;5.47;;;1.92;;
68718;SDS011;55696;52.138;5.444;2022-10-16T05:07:46;4.38;;;2.00;;
68718;SDS011;55696;52.138;5.444;2022-10-16T05:10:13;3.55;;;1.98;;
68718;SDS011;55696;52.138;5.444;2022-10-16T05:12:40;6.87;;;2.10;;
68718;SDS011;55696;52.138;5.444;2022-10-16T05:15:07;4.97;;;2.20;;
68718;SDS011;55696;52.138;5.444;2022-10-16T05:17:34;5.20;;;2.10;;
68718;SDS011;55696;52.138;5.444;2022-10-16T05:20:04;3.97;;;2.20;;
68718;SDS011;55696;52.138;5.444;2022-10-16T05:22:31;3.15;;;1.80;;
68718;SDS011;55696;52.138;5.444;2022-10-16T05:24:58;3.80;;;1.87;;
68718;SDS011;55696;52.138;5.444;2022-10-16T05:27:24;8.52;;;2.22;;
68718;SDS011;55696;52.138;5.444;2022-10-16T05:29:51;9.23;;;1.83;;
68718;SDS011;55696;52.138;5.444;2022-10-16T05:32:18;7.60;;;2.17;;
68718;SDS011;55696;52.138;5.444;2022-10-16T05:34:45;3.90;;;1.90;;
68718;SDS011;55696;52.138;5.444;2022-10-16T05:37:12;4.90;;;1.83;;
68718;SDS011;55696;52.138;5.444;2022-10-16T05:39:39;4.38;;;1.80;;
68718;SDS011;55696;52.138;5.444;2022-10-16T05:42:06;4.38;;;1.77;;
68718;SDS011;55696;52.138;5.444;2022-10-16T05:44:33;5.78;;;2.22;;
68718;SDS011;55696;52.138;5.444;2022-10-16T05:47:04;4.60;;;2.40;;
68718;SDS011;55696;52.138;5.444;2022-10-16T05:49:31;5.43;;;1.90;;
68718;SDS011;55696;52.138;5.444;2022-10-16T05:52:02;5.88;;;2.20;;
68718;SDS011;55696;52.138;5.444;2022-10-16T05:54:29;8.82;;;2.28;;
68718;SDS011;55696;52.138;5.444;2022-10-16T05:56:55;5.47;;;2.03;;
68718;SDS011;55696;52.138;5.444;2022-10-16T05:59:22;3.85;;;2.10;;
68718;SDS011;55696;52.138;5.444;2022-10-16T06:01:49;3.50;;;1.90;;
68718;SDS011;55696;52.138;5.444;2022-10-16T06:04:16;5.13;;;2.35;;
68718;SDS011;55696;52.138;5.444;2022-10-16T06:06:42;5.18;;;1.88;;
68718;SDS011;55696;52.138;5.444;2022-10-16T06:09:09;13.25;;;2.60;;
68718;SDS011;55696;52.138;5.444;2022-10-16T06:11:36;4.15;;;2.10;;
68718;SDS011;55696;52.138;5.444;2022-10-16T06:14:03;5.03;;;2.47;;
68718;SDS011;55696;52.138;5.444;2022-10-16T06:16:36;5.57;;;1.90;;
68718;SDS011;55696;52.138;5.444;2022-10-16T06:19:03;5.55;;;2.20;;
68718;SDS011;55696;52.138;5.444;2022-10-16T06:21:32;5.97;;;2.72;;
68718;SDS011;55696;52.138;5.444;2022-10-16T06:23:59;5.05;;;2.10;;
68718;SDS011;55696;52.138;5.444;2022-10-16T06:26:26;4.43;;;2.40;;
68718;SDS011;55696;52.138;5.444;2022-10-16T06:28:55;5.80;;;2.35;;
68718;SDS011;55696;52.138;5.444;2022-10-16T06:31:25;7.00;;;2.10;;
68718;SDS011;55696;52.138;5.444;2022-10-16T06:33:55;5.65;;;1.98;;
68718;SDS011;55696;52.138;5.444;2022-10-16T06:36:22;3.85;;;2.08;;
68718;SDS011;55696;52.138;5.444;2022-10-16T06:38:51;4.40;;;2.40;;
68718;SDS011;55696;52.138;5.444;2022-10-16T06:41:18;5.88;;;2.03;;
68718;SDS011;55696;52.138;5.444;2022-10-16T06:43:47;6.13;;;2.22;;
68718;SDS011;55696;52.138;5.444;2022-10-16T06:46:15;5.65;;;2.35;;
68718;SDS011;55696;52.138;5.444;2022-10-16T06:48:43;6.10;;;2.00;;
68718;SDS011;55696;52.138;5.444;2022-10-16T06:51:14;6.30;;;2.30;;
68718;SDS011;55696;52.138;5.444;2022-10-16T06:53:52;4.95;;;2.17;;
68718;SDS011;55696;52.138;5.444;2022-10-16T06:56:29;9.45;;;2.30;;
68718;SDS011;55696;52.138;5.444;2022-10-16T06:58:57;4.20;;;2.08;;
68718;SDS011;55696;52.138;5.444;2022-10-16T07:01:25;9.68;;;2.67;;
68718;SDS011;55696;52.138;5.444;2022-10-16T07:03:52;7.97;;;2.90;;
68718;SDS011;55696;52.138;5.444;2022-10-16T07:06:20;7.28;;;2.50;;
68718;SDS011;55696;52.138;5.444;2022-10-16T07:08:49;4.63;;;2.25;;
68718;SDS011;55696;52.138;5.444;2022-10-16T07:11:17;5.53;;;2.30;;
68718;SDS011;55696;52.138;5.444;2022-10-16T07:13:45;4.57;;;1.83;;
68718;SDS011;55696;52.138;5.444;2022-10-16T07:16:21;4.10;;;1.73;;
68718;SDS011;55696;52.138;5.444;2022-10-16T07:18:50;4.07;;;2.20;;
68718;SDS011;55696;52.138;5.444;2022-10-16T07:21:23;8.40;;;1.88;;
68718;SDS011;55696;52.138;5.444;2022-10-16T07:23:56;7.10;;;2.30;;
68718;SDS011;55696;52.138;5.444;2022-10-16T07:26:25;4.70;;;1.90;;
68718;SDS011;55696;52.138;5.444;2022-10-16T07:28:52;4.73;;;2.27;;
68718;SDS011;55696;52.138;5.444;2022-10-16T07:31:19;4.47;;;1.70;;
68718;SDS011;55696;52.138;5.444;2022-10-16T07:33:47;4.47;;;2.10;;
68718;SDS011;55696;52.138;5.444;2022-10-16T07:36:14;6.85;;;2.88;;
68718;SDS011;55696;52.138;5.444;2022-10-16T07:38:42;4.82;;;1.83;;
68718;SDS011;55696;52.138;5.444;2022-10-16T07:41:14;4.97;;;1.87;;
68718;SDS011;55696;52.138;5.444;2022-10-16T07:43:45;6.35;;;1.80;;
68718;SDS011;55696;52.138;5.444;2022-10-16T07:46:13;7.60;;;2.00;;
68718;SDS011;55696;52.138;5.444;2022-10-16T07:48:41;3.80;;;1.85;;
68718;SDS011;55696;52.138;5.444;2022-10-16T07:51:11;3.42;;;1.60;;
68718;SDS011;55696;52.138;5.444;2022-10-16T07:53:39;5.60;;;2.00;;
68718;SDS011;55696;52.138;5.444;2022-10-16T07:56:06;3.75;;;1.88;;
68718;SDS011;55696;52.138;5.444;2022-10-16T07:58:34;5.60;;;1.95;;
68718;SDS011;55696;52.138;5.444;2022-10-16T08:01:05;3.83;;;2.10;;
68718;SDS011;55696;52.138;5.444;2022-10-16T08:03:33;7.45;;;2.22;;
68718;SDS011;55696;52.138;5.444;2022-10-16T08:06:00;6.83;;;2.33;;
68718;SDS011;55696;52.138;5.444;2022-10-16T08:08:28;3.53;;;1.98;;
68718;SDS011;55696;52.138;5.444;2022-10-16T08:10:54;6.40;;;2.30;;
68718;SDS011;55696;52.138;5.444;2022-10-16T08:13:21;4.30;;;1.88;;
68718;SDS011;55696;52.138;5.444;2022-10-16T08:15:48;6.68;;;2.20;;
68718;SDS011;55696;52.138;5.444;2022-10-16T08:18:15;4.63;;;2.00;;
68718;SDS011;55696;52.138;5.444;2022-10-16T08:20:42;4.43;;;2.10;;
68718;SDS011;55696;52.138;5.444;2022-10-16T08:23:09;5.05;;;2.10;;
68718;SDS011;55696;52.138;5.444;2022-10-16T08:25:38;4.05;;;1.88;;
68718;SDS011;55696;52.138;5.444;2022-10-16T08:28:06;5.28;;;1.83;;
68718;SDS011;55696;52.138;5.444;2022-10-16T08:30:34;4.73;;;1.80;;
68718;SDS011;55696;52.138;5.444;2022-10-16T08:33:01;7.35;;;1.90;;
68718;SDS011;55696;52.138;5.444;2022-10-16T08:35:28;7.13;;;2.33;;
68718;SDS011;55696;52.138;5.444;2022-10-16T08:37:55;5.88;;;1.80;;
68718;SDS011;55696;52.138;5.444;2022-10-16T08:40:25;5.65;;;2.50;;
68718;SDS011;55696;52.138;5.444;2022-10-16T08:48:51;8.07;;;2.40;;
68718;SDS011;55696;52.138;5.444;2022-10-16T08:51:24;5.07;;;2.10;;
68718;SDS011;55696;52.138;5.444;2022-10-16T08:54:08;7.20;;;2.13;;
68718;SDS011;55696;52.138;5.444;2022-10-16T08:56:43;4.97;;;2.10;;
68718;SDS011;55696;52.138;5.444;2022-10-16T08:59:10;7.13;;;2.33;;
68718;SDS011;55696;52.138;5.444;2022-10-16T09:01:41;10.15;;;2.72;;
68718;SDS011;55696;52.138;5.444;2022-10-16T09:07:18;8.05;;;1.80;;
68718;SDS011;55696;52.138;5.444;2022-10-16T09:10:11;7.67;;;2.40;;
68718;SDS011;55696;52.138;5.444;2022-10-16T09:12:55;7.13;;;2.08;;
68718;SDS011;55696;52.138;5.444;2022-10-16T09:21:05;11.60;;;2.22;;
68718;SDS011;55696;52.138;5.444;2022-10-16T09:23:41;5.20;;;1.70;;
68718;SDS011;55696;52.138;5.444;2022-10-16T09:26:09;10.82;;;2.08;;
68718;SDS011;55696;52.138;5.444;2022-10-16T09:28:39;6.68;;;1.80;;
68718;SDS011;55696;52.138;5.444;2022-10-16T09:31:24;5.78;;;1.90;;
68718;SDS011;55696;52.138;5.444;2022-10-16T09:33:53;4.45;;;1.60;;
68718;SDS011;55696;52.138;5.444;2022-10-16T09:36:24;13.13;;;2.80;;
68718;SDS011;55696;52.138;5.444;2022-10-16T09:39:06;12.75;;;2.45;;
68718;SDS011;55696;52.138;5.444;2022-10-16T09:41:35;9.60;;;2.05;;
68718;SDS011;55696;52.138;5.444;2022-10-16T09:44:06;7.63;;;1.67;;
68718;SDS011;55696;52.138;5.444;2022-10-16T09:49:30;8.30;;;1.97;;
68718;SDS011;55696;52.138;5.444;2022-10-16T09:52:05;9.75;;;2.05;;
68718;SDS011;55696;52.138;5.444;2022-10-16T09:57:21;9.40;;;2.13;;
68718;SDS011;55696;52.138;5.444;2022-10-16T09:59:50;6.90;;;1.60;;
68718;SDS011;55696;52.138;5.444;2022-10-16T10:02:18;9.67;;;2.07;;
68718;SDS011;55696;52.138;5.444;2022-10-16T10:04:52;6.70;;;1.67;;
68718;SDS011;55696;52.138;5.444;2022-10-16T10:07:25;7.82;;;2.10;;
68718;SDS011;55696;52.138;5.444;2022-10-16T10:09:55;8.82;;;2.30;;
68718;SDS011;55696;52.138;5.444;2022-10-16T10:12:23;7.65;;;1.77;;
68718;SDS011;55696;52.138;5.444;2022-10-16T10:14:56;9.97;;;1.80;;
68718;SDS011;55696;52.138;5.444;2022-10-16T10:17:32;8.73;;;2.58;;
68718;SDS011;55696;52.138;5.444;2022-10-16T10:22:49;12.35;;;2.00;;
68718;SDS011;55696;52.138;5.444;2022-10-16T10:25:20;9.25;;;2.00;;
68718;SDS011;55696;52.138;5.444;2022-10-16T10:33:43;10.02;;;2.00;;
68718;SDS011;55696;52.138;5.444;2022-10-16T10:36:43;10.98;;;2.25;;
68718;SDS011;55696;52.138;5.444;2022-10-16T10:39:25;6.95;;;2.47;;
68718;SDS011;55696;52.138;5.444;2022-10-16T10:42:14;7.43;;;2.00;;
68718;SDS011;55696;52.138;5.444;2022-10-16T10:45:07;13.10;;;2.13;;
68718;SDS011;55696;52.138;5.444;2022-10-16T10:47:54;9.32;;;1.95;;
68718;SDS011;55696;52.138;5.444;2022-10-16T10:50:33;6.80;;;2.03;;
68718;SDS011;55696;52.138;5.444;2022-10-16T10:56:15;15.03;;;1.90;;
68718;SDS011;55696;52.138;5.444;2022-10-16T11:01:56;14.50;;;2.20;;
68718;SDS011;55696;52.138;5.444;2022-10-16T11:07:54;12.68;;;2.70;;
68718;SDS011;55696;52.138;5.444;2022-10-16T11:10:59;10.37;;;2.73;;
68718;SDS011;55696;52.138;5.444;2022-10-16T11:16:20;7.57;;;1.63;;
68718;SDS011;55696;52.138;5.444;2022-10-16T11:18:59;7.25;;;1.98;;
68718;SDS011;55696;52.138;5.444;2022-10-16T11:21:39;10.88;;;2.60;;
68718;SDS011;55696;52.138;5.444;2022-10-16T11:24:21;7.30;;;1.70;;
68718;SDS011;55696;52.138;5.444;2022-10-16T11:26:58;13.73;;;2.10;;
68718;SDS011;55696;52.138;5.444;2022-10-16T11:29:30;12.25;;;2.17;;
68718;SDS011;55696;52.138;5.444;2022-10-16T11:32:01;10.02;;;2.40;;
68718;SDS011;55696;52.138;5.444;2022-10-16T11:34:39;10.05;;;2.00;;
68718;SDS011;55696;52.138;5.444;2022-10-16T11:37:15;11.10;;;2.13;;
68718;SDS011;55696;52.138;5.444;2022-10-16T11:39:47;6.70;;;1.70;;
68718;SDS011;55696;52.138;5.444;2022-10-16T11:42:21;9.73;;;2.30;;
68718;SDS011;55696;52.138;5.444;2022-10-16T11:48:15;8.98;;;2.03;;
68718;SDS011;55696;52.138;5.444;2022-10-16T11:51:05;12.03;;;4.60;;
68718;SDS011;55696;52.138;5.444;2022-10-16T11:56:29;9.85;;;2.35;;
68718;SDS011;55696;52.138;5.444;2022-10-16T11:58:59;9.00;;;1.67;;
68718;SDS011;55696;52.138;5.444;2022-10-16T12:01:45;6.35;;;1.70;;
68718;SDS011;55696;52.138;5.444;2022-10-16T12:04:26;10.73;;;2.30;;
68718;SDS011;55696;52.138;5.444;2022-10-16T12:07:07;4.68;;;1.90;;
68718;SDS011;55696;52.138;5.444;2022-10-16T12:09:38;10.27;;;2.40;;
68718;SDS011;55696;52.138;5.444;2022-10-16T12:12:25;7.95;;;1.83;;
68718;SDS011;55696;52.138;5.444;2022-10-16T12:15:20;9.85;;;2.63;;
68718;SDS011;55696;52.138;5.444;2022-10-16T12:18:20;9.50;;;2.53;;
68718;SDS011;55696;52.138;5.444;2022-10-16T12:20:57;7.35;;;1.90;;
68718;SDS011;55696;52.138;5.444;2022-10-16T12:23:26;10.18;;;2.05;;
68718;SDS011;55696;52.138;5.444;2022-10-16T12:25:54;7.70;;;1.80;;
68718;SDS011;55696;52.138;5.444;2022-10-16T12:28:27;11.43;;;2.30;;
68718;SDS011;55696;52.138;5.444;2022-10-16T12:31:02;5.10;;;1.33;;
68718;SDS011;55696;52.138;5.444;2022-10-16T12:33:35;9.02;;;2.17;;
68718;SDS011;55696;52.138;5.444;2022-10-16T12:36:10;8.82;;;2.00;;
68718;SDS011;55696;52.138;5.444;2022-10-16T12:38:51;8.75;;;1.67;;
68718;SDS011;55696;52.138;5.444;2022-10-16T12:41:28;7.15;;;1.70;;
68718;SDS011;55696;52.138;5.444;2022-10-16T12:44:01;11.07;;;1.77;;
68718;SDS011;55696;52.138;5.444;2022-10-16T12:51:40;10.35;;;2.75;;
68718;SDS011;55696;52.138;5.444;2022-10-16T13:13:29;9.32;;;2.28;;
68718;SDS011;55696;52.138;5.444;2022-10-16T13:21:35;7.38;;;1.50;;
68718;SDS011;55696;52.138;5.444;2022-10-16T13:26:58;9.32;;;1.88;;
68718;SDS011;55696;52.138;5.444;2022-10-16T13:29:33;9.25;;;1.98;;
68718;SDS011;55696;52.138;5.444;2022-10-16T13:32:00;12.82;;;2.15;;
68718;SDS011;55696;52.138;5.444;2022-10-16T13:34:33;9.75;;;1.77;;
68718;SDS011;55696;52.138;5.444;2022-10-16T13:37:16;7.53;;;1.77;;
68718;SDS011;55696;52.138;5.444;2022-10-16T13:39:50;10.05;;;2.03;;
68718;SDS011;55696;52.138;5.444;2022-10-16T13:42:24;8.10;;;2.03;;
68718;SDS011;55696;52.138;5.444;2022-10-16T13:44:54;13.95;;;2.20;;
68718;SDS011;55696;52.138;5.444;2022-10-16T13:50:04;10.50;;;2.20;;
68718;SDS011;55696;52.138;5.444;2022-10-16T13:52:39;13.30;;;2.10;;
68718;SDS011;55696;52.138;5.444;2022-10-16T13:55:16;7.07;;;1.70;;
68718;SDS011;55696;52.138;5.444;2022-10-16T13:57:44;8.68;;;1.70;;
68718;SDS011;55696;52.138;5.444;2022-10-16T14:00:21;9.20;;;2.03;;
68718;SDS011;55696;52.138;5.444;2022-10-16T14:02:55;8.77;;;1.70;;
68718;SDS011;55696;52.138;5.444;2022-10-16T14:05:27;10.23;;;1.73;;
68718;SDS011;55696;52.138;5.444;2022-10-16T14:07:54;8.48;;;2.00;;
68718;SDS011;55696;52.138;5.444;2022-10-16T14:10:25;5.30;;;1.70;;
68718;SDS011;55696;52.138;5.444;2022-10-16T14:12:58;10.95;;;2.35;;
68718;SDS011;55696;52.138;5.444;2022-10-16T14:15:30;9.10;;;1.70;;
68718;SDS011;55696;52.138;5.444;2022-10-16T14:17:59;12.45;;;2.25;;
68718;SDS011;55696;52.138;5.444;2022-10-16T14:20:30;12.65;;;3.25;;
68718;SDS011;55696;52.138;5.444;2022-10-16T14:25:49;7.32;;;1.85;;
68718;SDS011;55696;52.138;5.444;2022-10-16T14:28:18;8.03;;;2.33;;
68718;SDS011;55696;52.138;5.444;2022-10-16T14:30:56;6.70;;;2.10;;
68718;SDS011;55696;52.138;5.444;2022-10-16T14:33:31;11.93;;;3.10;;
68718;SDS011;55696;52.138;5.444;2022-10-16T14:36:01;9.95;;;2.58;;
68718;SDS011;55696;52.138;5.444;2022-10-16T14:38:31;10.43;;;2.65;;
68718;SDS011;55696;52.138;5.444;2022-10-16T14:40:59;16.70;;;3.93;;
68718;SDS011;55696;52.138;5.444;2022-10-16T14:44:00;19.52;;;3.10;;
68718;SDS011;55696;52.138;5.444;2022-10-16T14:46:22;10.48;;;2.03;;
68718;SDS011;55696;52.138;5.444;2022-10-16T14:51:40;13.93;;;2.72;;
68718;SDS011;55696;52.138;5.444;2022-10-16T14:54:08;8.47;;;1.87;;
68718;SDS011;55696;52.138;5.444;2022-10-16T14:56:42;11.20;;;2.10;;
68718;SDS011;55696;52.138;5.444;2022-10-16T14:59:16;8.95;;;2.50;;
68718;SDS011;55696;52.138;5.444;2022-10-16T15:01:55;11.82;;;2.17;;
68718;SDS011;55696;52.138;5.444;2022-10-16T15:04:22;9.98;;;1.83;;
68718;SDS011;55696;52.138;5.444;2022-10-16T15:06:49;11.63;;;2.33;;
68718;SDS011;55696;52.138;5.444;2022-10-16T15:09:15;9.48;;;1.90;;
68718;SDS011;55696;52.138;5.444;2022-10-16T15:11:42;12.15;;;1.77;;
68718;SDS011;55696;52.138;5.444;2022-10-16T15:14:11;13.25;;;2.28;;
68718;SDS011;55696;52.138;5.444;2022-10-16T15:16:40;8.15;;;1.95;;
68718;SDS011;55696;52.138;5.444;2022-10-16T15:19:07;10.47;;;2.13;;
68718;SDS011;55696;52.138;5.444;2022-10-16T15:21:33;13.38;;;1.95;;
68718;SDS011;55696;52.138;5.444;2022-10-16T15:24:00;5.10;;;1.58;;
68718;SDS011;55696;52.138;5.444;2022-10-16T15:26:28;10.70;;;1.95;;
68718;SDS011;55696;52.138;5.444;2022-10-16T15:28:55;6.43;;;1.83;;
68718;SDS011;55696;52.138;5.444;2022-10-16T15:31:22;7.33;;;1.80;;
68718;SDS011;55696;52.138;5.444;2022-10-16T15:33:53;14.73;;;2.55;;
68718;SDS011;55696;52.138;5.444;2022-10-16T15:36:25;10.20;;;2.25;;
68718;SDS011;55696;52.138;5.444;2022-10-16T15:38:55;18.40;;;2.90;;
68718;SDS011;55696;52.138;5.444;2022-10-16T15:41:22;10.98;;;1.70;;
68718;SDS011;55696;52.138;5.444;2022-10-16T15:43:50;13.67;;;1.87;;
68718;SDS011;55696;52.138;5.444;2022-10-16T15:46:21;12.82;;;2.30;;
68718;SDS011;55696;52.138;5.444;2022-10-16T15:48:49;7.50;;;2.58;;
68718;SDS011;55696;52.138;5.444;2022-10-16T15:51:17;11.63;;;2.53;;
68718;SDS011;55696;52.138;5.444;2022-10-16T15:53:44;14.18;;;2.40;;
68718;SDS011;55696;52.138;5.444;2022-10-16T15:56:13;9.53;;;3.00;;
68718;SDS011;55696;52.138;5.444;2022-10-16T15:58:41;12.43;;;2.30;;
68718;SDS011;55696;52.138;5.444;2022-10-16T16:01:09;10.32;;;2.08;;
68718;SDS011;55696;52.138;5.444;2022-10-16T16:03:37;14.93;;;2.92;;
68718;SDS011;55696;52.138;5.444;2022-10-16T16:06:08;18.90;;;5.15;;
68718;SDS011;55696;52.138;5.444;2022-10-16T16:08:37;17.07;;;5.10;;
68718;SDS011;55696;52.138;5.444;2022-10-16T16:11:06;12.25;;;3.70;;
68718;SDS011;55696;52.138;5.444;2022-10-16T16:13:34;17.40;;;3.78;;
68718;SDS011;55696;52.138;5.444;2022-10-16T16:16:15;12.18;;;2.72;;
68718;SDS011;55696;52.138;5.444;2022-10-16T16:18:43;11.13;;;2.60;;
68718;SDS011;55696;52.138;5.444;2022-10-16T16:21:11;11.10;;;2.67;;
68718;SDS011;55696;52.138;5.444;2022-10-16T16:23:38;11.05;;;3.50;;
68718;SDS011;55696;52.138;5.444;2022-10-16T16:28:34;16.33;;;3.33;;
68718;SDS011;55696;52.138;5.444;2022-10-16T16:31:01;9.27;;;3.40;;
68718;SDS011;55696;52.138;5.444;2022-10-16T16:33:28;12.77;;;3.43;;
68718;SDS011;55696;52.138;5.444;2022-10-16T16:35:57;13.73;;;3.38;;
68718;SDS011;55696;52.138;5.444;2022-10-16T16:38:25;15.73;;;3.25;;
68718;SDS011;55696;52.138;5.444;2022-10-16T16:40:53;19.75;;;5.95;;
68718;SDS011;55696;52.138;5.444;2022-10-16T16:43:25;11.80;;;3.90;;
68718;SDS011;55696;52.138;5.444;2022-10-16T16:45:53;16.37;;;3.50;;
68718;SDS011;55696;52.138;5.444;2022-10-16T16:48:20;14.52;;;3.47;;
68718;SDS011;55696;52.138;5.444;2022-10-16T16:50:47;21.40;;;3.80;;
68718;SDS011;55696;52.138;5.444;2022-10-16T16:53:14;15.38;;;3.67;;